Time;durP1;ratioP1;P1;durP2;ratioP2;P2;SDS_P1;SDS_P2;PMS_P1;PMS_P2;Temp;Humidity;BMP_temperature;BMP_pressure;BME280_temperature;BME280_humidity;BME280_pressure;Samples;Min_cycle;Max_cycle;Signal;HPM_P1;HPM_P2
2022/08/23 00:01:25;;;;;;;5.55;1.80;;;21.60;77.60;;;;;;5032675;28;20072;-51
2022/08/23 00:03:52;;;;;;;2.22;1.75;;;21.60;77.70;;;;;;5032468;28;20060;-45
2022/08/23 00:06:20;;;;;;;2.67;2.03;;;21.50;78.20;;;;;;5032655;28;20021;-48
2022/08/23 00:08:47;;;;;;;2.20;1.50;;;21.40;78.50;;;;;;5032742;28;20033;-48
2022/08/23 00:11:35;;;;;;;7.22;3.45;;;21.40;78.50;;;;;;5032466;28;20080;-48
2022/08/23 00:14:07;;;;;;;3.03;1.95;;;21.30;78.80;;;;;;5032559;28;20112;-48
2022/08/23 00:16:34;;;;;;;3.90;1.73;;;21.30;78.90;;;;;;5032441;28;20033;-49
2022/08/23 00:19:00;;;;;;;5.82;1.70;;;21.30;79.10;;;;;;5032459;28;20018;-44
2022/08/23 00:21:26;;;;;;;5.22;2.17;;;21.20;79.20;;;;;;5040300;22;20076;-50
2022/08/23 00:23:51;;;;;;;2.80;1.65;;;21.20;79.40;;;;;;5012421;28;20014;-49
2022/08/23 00:26:19;;;;;;;1.80;1.65;;;21.20;79.50;;;;;;5011616;28;20042;-48
2022/08/23 00:28:45;;;;;;;8.75;2.60;;;21.10;79.70;;;;;;5012895;28;20026;-51
2022/08/23 00:31:10;;;;;;;5.97;2.33;;;21.10;79.90;;;;;;5011473;28;20395;-47
2022/08/23 00:33:36;;;;;;;2.13;1.92;;;21.00;80.10;;;;;;5011150;28;20026;-49
2022/08/23 00:36:02;;;;;;;6.95;1.92;;;21.00;80.00;;;;;;5013175;28;20065;-51
2022/08/23 00:38:27;;;;;;;6.53;1.90;;;21.00;80.30;;;;;;5011093;28;20041;-45
2022/08/23 00:40:53;;;;;;;8.18;1.90;;;21.00;80.40;;;;;;5012444;28;20084;-47
2022/08/23 00:49:03;;;;;;;5.97;2.08;;;20.90;80.70;;;;;;5012453;28;20045;-46
2022/08/23 00:52:01;;;;;;;5.93;2.15;;;20.90;80.70;;;;;;5012230;28;20026;-47
2022/08/23 00:54:28;;;;;;;6.25;2.13;;;20.90;80.80;;;;;;5011832;28;20036;-48
2022/08/23 00:56:58;;;;;;;4.13;1.80;;;20.90;80.90;;;;;;5012224;28;20478;-47
2022/08/23 00:59:24;;;;;;;5.47;2.00;;;20.80;80.90;;;;;;5011931;28;20061;-47
2022/08/23 01:01:50;;;;;;;4.10;2.47;;;20.80;81.30;;;;;;5011819;28;20057;-47
2022/08/23 01:04:16;;;;;;;2.08;1.75;;;20.80;81.60;;;;;;5011747;28;20029;-48
2022/08/23 01:07:11;;;;;;;3.83;2.83;;;20.70;81.60;;;;;;5012208;28;20022;-50
2022/08/23 01:09:39;;;;;;;3.38;2.22;;;20.70;94.40;;;;;;5011841;28;20505;-48
2022/08/23 01:12:26;;;;;;;3.15;1.70;;;20.60;94.30;;;;;;5011628;28;20037;-46
2022/08/23 01:15:01;;;;;;;6.45;2.38;;;20.60;82.10;;;;;;5011804;28;20029;-52
2022/08/23 01:17:34;;;;;;;2.50;1.83;;;20.50;82.20;;;;;;5010609;28;20033;-48
2022/08/23 01:20:04;;;;;;;9.48;2.10;;;20.50;82.20;;;;;;5011507;28;20566;-49
2022/08/23 01:23:01;;;;;;;4.70;1.80;;;20.50;82.50;;;;;;5011559;28;20073;-52
2022/08/23 01:25:29;;;;;;;9.35;2.50;;;20.40;82.70;;;;;;4980966;28;20402;-49
2022/08/23 01:27:56;;;;;;;6.25;2.13;;;20.40;82.80;;;;;;5012177;28;20417;-48
2022/08/23 01:30:24;;;;;;;4.05;1.60;;;20.40;83.00;;;;;;5011650;28;20563;-51
2022/08/23 01:32:53;;;;;;;2.65;1.90;;;20.40;83.10;;;;;;5010249;28;20030;-47
2022/08/23 01:35:22;;;;;;;4.47;2.00;;;20.40;83.80;;;;;;5011729;28;20026;-52
2022/08/23 01:37:48;;;;;;;4.30;2.25;;;20.40;83.20;;;;;;5012009;28;20025;-49
2022/08/23 01:40:13;;;;;;;8.07;2.38;;;20.40;83.40;;;;;;5011737;28;20034;-45
2022/08/23 01:42:40;;;;;;;5.65;2.08;;;20.40;85.10;;;;;;5011404;28;20033;-48
2022/08/23 01:45:11;;;;;;;4.85;2.08;;;20.30;85.70;;;;;;5011174;28;20081;-48
2022/08/23 01:47:37;;;;;;;5.50;1.90;;;20.30;85.80;;;;;;5011621;28;20105;-48
2022/08/23 01:50:03;;;;;;;2.75;2.03;;;20.30;85.90;;;;;;5026832;28;20076;-47
2022/08/23 01:52:28;;;;;;;5.68;2.05;;;20.20;85.70;;;;;;5011418;28;20034;-48
2022/08/23 01:54:56;;;;;;;4.13;2.13;;;20.20;84.30;;;;;;5011720;28;20054;-47
2022/08/23 01:57:21;;;;;;;6.05;2.08;;;20.10;85.30;;;;;;5011553;28;20026;-47
2022/08/23 01:59:47;;;;;;;2.58;2.22;;;19.90;84.50;;;;;;5011402;28;20486;-46
2022/08/23 02:02:13;;;;;;;7.88;2.08;;;20.20;85.90;;;;;;5014905;28;20026;-46
2022/08/23 02:04:39;;;;;;;2.60;1.83;;;20.10;86.10;;;;;;5015227;28;20025;-46
2022/08/23 02:07:04;;;;;;;5.78;2.38;;;20.10;86.30;;;;;;5015265;28;20026;-46
2022/08/23 02:09:30;;;;;;;7.28;2.05;;;20.10;87.10;;;;;;5015046;28;20030;-48
2022/08/23 02:11:56;;;;;;;6.03;2.08;;;20.10;86.90;;;;;;5014601;28;20021;-45
2022/08/23 02:14:21;;;;;;;7.22;2.17;;;20.00;87.10;;;;;;5014971;28;20036;-47
2022/08/23 02:16:51;;;;;;;6.05;3.00;;;20.00;85.40;;;;;;5014796;28;20485;-46
2022/08/23 02:19:17;;;;;;;6.93;2.35;;;20.00;85.40;;;;;;5014925;28;20038;-46
2022/08/23 02:21:43;;;;;;;2.63;2.08;;;20.00;85.50;;;;;;5014693;28;20088;-48
2022/08/23 02:24:13;;;;;;;5.28;2.00;;;20.00;85.50;;;;;;5014872;28;20046;-51
2022/08/23 02:26:40;;;;;;;3.33;2.22;;;20.00;85.50;;;;;;5014938;28;20101;-43
2022/08/23 02:29:06;;;;;;;3.75;2.17;;;19.90;85.70;;;;;;5015731;28;20085;-45
2022/08/23 02:31:32;;;;;;;3.47;1.80;;;19.90;85.70;;;;;;5014864;28;20476;-42
2022/08/23 02:33:59;;;;;;;4.60;2.25;;;19.80;86.10;;;;;;5014661;28;20053;-46
2022/08/23 02:36:25;;;;;;;5.30;2.40;;;19.80;86.30;;;;;;5014707;28;20100;-45
2022/08/23 02:38:52;;;;;;;7.70;1.73;;;19.80;86.40;;;;;;5015039;28;20026;-49
2022/08/23 02:41:18;;;;;;;3.88;2.40;;;19.70;86.60;;;;;;5014358;28;20021;-43
2022/08/23 02:43:43;;;;;;;2.67;2.00;;;19.70;86.80;;;;;;5013645;28;20030;-45
2022/08/23 02:46:09;;;;;;;3.75;1.98;;;19.70;86.90;;;;;;5014636;28;20497;-45
2022/08/23 02:48:35;;;;;;;3.83;2.38;;;19.60;88.00;;;;;;5014488;28;20021;-46
2022/08/23 02:51:03;;;;;;;3.42;1.75;;;19.60;87.60;;;;;;5014289;28;20036;-44
2022/08/23 02:53:29;;;;;;;5.05;2.30;;;19.60;87.80;;;;;;5013935;28;20081;-51
2022/08/23 02:55:55;;;;;;;5.00;2.28;;;19.60;87.90;;;;;;5014375;28;20037;-51
2022/08/23 02:58:21;;;;;;;6.63;2.17;;;19.60;88.20;;;;;;5014186;28;20026;-49
2022/08/23 03:00:48;;;;;;;11.02;1.90;;;19.50;88.20;;;;;;5013966;28;20101;-47
2022/08/23 03:03:15;;;;;;;3.03;2.00;;;19.50;88.40;;;;;;5013790;28;20022;-46
2022/08/23 03:05:41;;;;;;;3.25;2.05;;;19.50;88.70;;;;;;5013967;28;20477;-50
2022/08/23 03:08:07;;;;;;;2.50;2.10;;;19.40;88.90;;;;;;5013963;28;20026;-48
2022/08/23 03:10:33;;;;;;;5.10;2.13;;;19.40;89.10;;;;;;5013904;28;20018;-47
2022/08/23 03:12:58;;;;;;;6.93;3.33;;;19.40;89.40;;;;;;5013433;28;20493;-48
2022/08/23 03:15:24;;;;;;;2.58;2.10;;;19.40;89.60;;;;;;5014337;28;20030;-48
2022/08/23 03:17:49;;;;;;;3.00;2.05;;;19.30;89.70;;;;;;5015546;28;20109;-45
2022/08/23 03:20:15;;;;;;;9.20;2.65;;;19.30;90.00;;;;;;5014592;28;20034;-45
2022/08/23 03:22:40;;;;;;;5.70;2.03;;;19.20;90.10;;;;;;5013188;28;20064;-44
2022/08/23 03:25:07;;;;;;;8.63;2.30;;;19.20;90.20;;;;;;5013676;28;20450;-48
2022/08/23 03:27:33;;;;;;;2.55;2.35;;;19.20;90.30;;;;;;5013749;28;20068;-46
2022/08/23 03:29:59;;;;;;;5.18;2.15;;;19.30;90.40;;;;;;5013599;28;20489;-48
2022/08/23 03:32:25;;;;;;;7.35;2.40;;;19.20;90.50;;;;;;5013262;28;20073;-44
2022/08/23 03:34:51;;;;;;;4.47;2.30;;;19.10;90.70;;;;;;5013778;28;20305;-48
2022/08/23 03:37:16;;;;;;;2.45;2.10;;;19.20;90.70;;;;;;5013447;28;20022;-46
2022/08/23 03:39:42;;;;;;;6.65;2.28;;;19.20;90.70;;;;;;5013277;28;20037;-51
2022/08/23 03:42:08;;;;;;;5.95;2.38;;;19.20;90.70;;;;;;5013192;28;20076;-47
2022/08/23 03:44:33;;;;;;;4.70;2.08;;;19.20;90.80;;;;;;5012735;28;20533;-47
2022/08/23 03:46:59;;;;;;;2.80;2.38;;;19.10;91.00;;;;;;5013250;28;20037;-51
2022/08/23 03:49:24;;;;;;;6.63;2.33;;;19.00;91.20;;;;;;5013259;28;20041;-49
2022/08/23 03:51:50;;;;;;;3.17;1.98;;;19.00;91.30;;;;;;5013290;28;20053;-45
2022/08/23 03:54:16;;;;;;;3.58;2.08;;;18.90;91.40;;;;;;5013145;28;20022;-46
2022/08/23 03:56:59;;;;;;;3.00;2.08;;;18.90;91.60;;;;;;5011557;28;20128;-49
2022/08/23 03:59:27;;;;;;;2.88;2.25;;;18.90;91.70;;;;;;5012966;28;20022;-47
2022/08/23 04:01:52;;;;;;;19.02;3.92;;;18.80;91.90;;;;;;5012475;28;20022;-47
2022/08/23 04:04:18;;;;;;;4.43;2.30;;;18.80;92.00;;;;;;5012818;28;20029;-48
2022/08/23 04:06:44;;;;;;;3.70;2.50;;;18.80;91.90;;;;;;5011590;28;20053;-50
2022/08/23 04:09:12;;;;;;;3.20;2.25;;;18.80;92.10;;;;;;5012887;28;20108;-47
2022/08/23 04:11:38;;;;;;;4.53;2.30;;;18.80;92.30;;;;;;5011196;28;20528;-47
2022/08/23 04:14:05;;;;;;;5.43;2.33;;;18.80;92.20;;;;;;5012647;28;20030;-47
2022/08/23 04:16:36;;;;;;;3.70;2.20;;;18.70;92.50;;;;;;5012826;28;20025;-47
2022/08/23 04:19:08;;;;;;;2.20;2.00;;;18.70;92.60;;;;;;5012715;28;20018;-47
2022/08/23 04:21:35;;;;;;;7.10;2.20;;;18.60;92.80;;;;;;5012488;28;20509;-45
2022/08/23 04:24:01;;;;;;;2.60;2.00;;;18.60;92.80;;;;;;5011749;28;20101;-48
2022/08/23 04:26:26;;;;;;;5.18;2.50;;;18.60;93.00;;;;;;5011181;28;20581;-49
2022/08/23 04:28:52;;;;;;;8.82;2.83;;;18.60;93.00;;;;;;5011403;28;20393;-46
2022/08/23 04:31:19;;;;;;;7.30;2.40;;;18.60;93.00;;;;;;5012293;28;20370;-50
2022/08/23 04:33:45;;;;;;;5.00;2.15;;;18.60;93.10;;;;;;5012222;28;20455;-49
2022/08/23 04:36:11;;;;;;;4.97;2.67;;;18.50;93.20;;;;;;5012636;28;20033;-46
2022/08/23 04:38:36;;;;;;;4.47;2.53;;;18.60;93.40;;;;;;5012393;28;20033;-44
2022/08/23 04:43:47;;;;;;;6.90;2.50;;;18.50;93.40;;;;;;5011780;28;20091;-46
2022/08/23 04:46:14;;;;;;;3.45;2.10;;;18.50;93.80;;;;;;5012441;28;20030;-45
2022/08/23 04:48:41;;;;;;;3.92;2.50;;;18.50;93.70;;;;;;5012163;28;20022;-47
2022/08/23 04:51:07;;;;;;;2.35;1.67;;;18.60;93.70;;;;;;5010898;28;20026;-49
2022/08/23 04:53:34;;;;;;;3.92;2.30;;;18.60;93.70;;;;;;5010450;28;20022;-50
2022/08/23 04:56:01;;;;;;;5.85;2.30;;;18.60;93.80;;;;;;5012159;28;20489;-45
2022/08/23 04:58:28;;;;;;;3.75;2.70;;;18.60;93.90;;;;;;5011988;28;20065;-47
2022/08/23 05:00:53;;;;;;;4.57;2.20;;;18.50;93.90;;;;;;5012172;28;20022;-46
2022/08/23 05:03:19;;;;;;;3.03;2.22;;;18.50;94.00;;;;;;5011523;28;20436;-45
2022/08/23 05:05:45;;;;;;;3.42;3.13;;;18.50;94.00;;;;;;5011981;28;20018;-46
2022/08/23 05:08:11;;;;;;;7.38;2.10;;;18.50;94.00;;;;;;5011763;28;20026;-45
2022/08/23 05:10:36;;;;;;;7.20;2.13;;;18.60;94.10;;;;;;5011723;28;20030;-50
2022/08/23 05:13:02;;;;;;;5.35;2.85;;;18.80;93.90;;;;;;5011847;28;20064;-49
2022/08/23 05:15:28;;;;;;;3.17;2.42;;;19.10;93.60;;;;;;5011777;28;20438;-50
2022/08/23 05:17:53;;;;;;;5.20;2.65;;;19.50;93.10;;;;;;5011448;28;20025;-45
2022/08/23 05:20:19;;;;;;;3.53;2.20;;;20.00;92.00;;;;;;5011461;28;20088;-49
2022/08/23 05:22:44;;;;;;;5.55;2.53;;;20.40;91.50;;;;;;5011204;28;20022;-47
2022/08/23 05:25:10;;;;;;;2.70;2.30;;;20.70;90.60;;;;;;5011736;28;20485;-50
2022/08/23 05:27:36;;;;;;;4.47;2.30;;;21.10;90.10;;;;;;5011677;28;20037;-46
2022/08/23 05:30:03;;;;;;;4.72;2.05;;;21.40;89.10;;;;;;5011690;28;20029;-46
2022/08/23 05:32:29;;;;;;;2.55;2.17;;;21.70;88.00;;;;;;5011328;28;20062;-47
2022/08/23 05:34:54;;;;;;;3.33;2.15;;;21.80;87.70;;;;;;5013056;28;20076;-48
2022/08/23 05:37:20;;;;;;;2.97;2.28;;;22.10;86.90;;;;;;5015723;28;20026;-47
2022/08/23 05:39:45;;;;;;;4.88;2.10;;;22.50;85.30;;;;;;5015456;28;20508;-48
2022/08/23 05:42:13;;;;;;;4.43;2.00;;;22.80;84.30;;;;;;5015416;28;20125;-51
2022/08/23 05:44:38;;;;;;;2.25;2.05;;;23.10;83.60;;;;;;5015257;28;20785;-46
2022/08/23 05:47:06;;;;;;;4.35;2.00;;;23.30;82.30;;;;;;5015185;28;20053;-43
2022/08/23 05:49:35;;;;;;;2.45;1.75;;;23.60;81.70;;;;;;5015239;28;20026;-48
2022/08/23 05:52:03;;;;;;;3.05;2.15;;;23.80;81.00;;;;;;5014901;28;20484;-49
2022/08/23 05:54:29;;;;;;;2.90;2.58;;;24.00;80.40;;;;;;5015379;28;20032;-46
2022/08/23 05:56:55;;;;;;;4.88;2.50;;;24.00;80.20;;;;;;5015414;28;20029;-49
2022/08/23 05:59:20;;;;;;;6.70;2.05;;;24.20;79.90;;;;;;5015188;28;20517;-46
2022/08/23 06:01:46;;;;;;;3.33;2.17;;;24.30;79.50;;;;;;5014998;28;20042;-52
2022/08/23 06:04:12;;;;;;;2.65;2.10;;;24.60;81.60;;;;;;5014987;28;20022;-47
2022/08/23 06:06:40;;;;;;;3.38;2.10;;;25.00;80.20;;;;;;5015135;28;20018;-46
2022/08/23 06:09:09;;;;;;;2.85;2.05;;;25.10;79.10;;;;;;5015135;28;20101;-49
2022/08/23 06:11:35;;;;;;;8.88;2.88;;;25.00;79.70;;;;;;5012549;28;20034;-48
2022/08/23 06:14:03;;;;;;;6.65;2.17;;;25.00;79.20;;;;;;5003867;28;20025;-50
2022/08/23 06:16:35;;;;;;;3.20;1.90;;;25.20;78.90;;;;;;5009670;28;20049;-48
2022/08/23 06:19:01;;;;;;;6.40;2.30;;;25.20;78.80;;;;;;5004130;28;20036;-49
2022/08/23 06:21:28;;;;;;;3.38;1.95;;;25.30;78.90;;;;;;5052024;22;20103;-47
2022/08/23 06:23:54;;;;;;;7.53;2.10;;;25.40;78.00;;;;;;5053121;28;20048;-49
2022/08/23 06:26:25;;;;;;;7.25;2.08;;;25.60;76.80;;;;;;5054741;28;20028;-47
2022/08/23 06:28:53;;;;;;;5.38;2.00;;;25.70;77.00;;;;;;5052568;28;20017;-48
2022/08/23 06:34:07;;;;;;;3.00;2.00;;;26.60;74.30;;;;;;5033028;28;20496;-49
2022/08/23 06:36:32;;;;;;;4.90;2.30;;;27.20;73.40;;;;;;5023986;28;20038;-42
2022/08/23 06:38:58;;;;;;;6.72;1.95;;;27.60;72.20;;;;;;5033596;28;20154;-45
2022/08/23 06:41:23;;;;;;;3.63;2.13;;;27.80;72.60;;;;;;5029901;28;20493;-43
2022/08/23 06:43:49;;;;;;;6.28;1.75;;;28.20;71.60;;;;;;5034350;28;20029;-45
2022/08/23 06:46:21;;;;;;;6.40;1.73;;;27.80;71.10;;;;;;5034034;28;20053;-43
2022/08/23 06:48:47;;;;;;;6.22;2.28;;;27.90;71.50;;;;;;5034623;28;20026;-43
2022/08/23 06:51:19;;;;;;;4.47;1.95;;;27.70;71.00;;;;;;5034455;28;20022;-45
2022/08/23 06:53:45;;;;;;;9.00;2.08;;;27.80;70.80;;;;;;5034408;28;20112;-43
2022/08/23 06:56:10;;;;;;;5.43;2.10;;;27.80;70.90;;;;;;5034255;28;20171;-43
2022/08/23 06:58:36;;;;;;;10.95;2.38;;;28.90;71.10;;;;;;5034840;28;20394;-41
2022/08/23 07:01:22;;;;;;;4.97;1.90;;;28.90;69.70;;;;;;5034379;28;20034;-41
2022/08/23 07:03:54;;;;;;;3.15;1.75;;;29.10;68.90;;;;;;5034164;28;20060;-45
2022/08/23 07:06:21;;;;;;;3.15;1.80;;;29.60;67.80;;;;;;5034116;28;20048;-44
2022/08/23 07:08:46;;;;;;;6.78;1.77;;;29.70;66.90;;;;;;5034059;28;20156;-44
2022/08/23 07:11:12;;;;;;;1.92;1.25;;;30.10;66.80;;;;;;5034008;28;20520;-45
2022/08/23 07:13:38;;;;;;;4.63;1.52;;;30.60;78.20;;;;;;5033940;28;20041;-45
2022/08/23 07:16:03;;;;;;;7.45;2.05;;;31.00;65.40;;;;;;5034219;28;20397;-48
2022/08/23 07:18:29;;;;;;;2.28;1.50;;;31.20;64.20;;;;;;5033998;28;20037;-43
2022/08/23 07:20:57;;;;;;;7.10;2.38;;;31.20;64.10;;;;;;5033633;28;20437;-40
2022/08/23 07:23:23;;;;;;;9.35;2.08;;;31.60;63.80;;;;;;5033657;28;20022;-44
2022/08/23 07:25:49;;;;;;;4.20;2.30;;;31.70;63.10;;;;;;5033682;28;20092;-41
2022/08/23 07:28:14;;;;;;;6.78;2.20;;;32.00;62.70;;;;;;5034153;28;20485;-42
2022/08/23 07:30:41;;;;;;;3.30;1.55;;;32.30;62.70;;;;;;5034644;28;20057;-45
2022/08/23 07:33:07;;;;;;;4.28;1.52;;;32.70;62.30;;;;;;5033705;28;20033;-43
2022/08/23 07:35:32;;;;;;;4.90;1.80;;;32.90;61.80;;;;;;5033586;28;20032;-45
2022/08/23 07:37:58;;;;;;;5.47;1.65;;;33.00;60.50;;;;;;5033889;28;20097;-44
2022/08/23 07:40:23;;;;;;;6.07;1.70;;;33.20;60.70;;;;;;5033491;28;20444;-39
2022/08/23 07:42:49;;;;;;;8.10;1.50;;;33.40;60.20;;;;;;5033126;28;20528;-49
2022/08/23 07:45:15;;;;;;;8.05;1.80;;;33.60;59.90;;;;;;5033684;28;20068;-47
2022/08/23 07:47:41;;;;;;;3.80;1.60;;;33.70;59.70;;;;;;5033470;28;20025;-43
2022/08/23 07:50:07;;;;;;;9.40;1.52;;;33.90;59.40;;;;;;5033310;28;20059;-41
2022/08/23 07:52:34;;;;;;;2.33;1.48;;;33.90;58.40;;;;;;5032943;28;20030;-46
2022/08/23 07:54:59;;;;;;;3.55;1.90;;;33.70;59.30;;;;;;5033049;28;20037;-46
2022/08/23 07:57:26;;;;;;;2.90;1.73;;;33.80;59.40;;;;;;5033388;28;20033;-41
2022/08/23 07:59:51;;;;;;;5.70;1.83;;;34.00;58.20;;;;;;5032508;28;20029;-44
2022/08/23 08:02:17;;;;;;;4.10;1.83;;;34.50;58.10;;;;;;5033142;28;20486;-44
2022/08/23 08:04:42;;;;;;;6.50;1.40;;;34.90;57.80;;;;;;5033107;28;20392;-41
2022/08/23 08:07:08;;;;;;;4.82;1.48;;;35.40;57.10;;;;;;5033104;28;20022;-49
2022/08/23 08:09:34;;;;;;;4.40;1.80;;;35.50;55.90;;;;;;5033422;28;20400;-45
2022/08/23 08:12:00;;;;;;;2.55;1.70;;;34.70;56.50;;;;;;5032536;28;20021;-40
2022/08/23 08:14:25;;;;;;;7.00;1.85;;;33.90;57.10;;;;;;5032802;28;20113;-44
2022/08/23 08:16:51;;;;;;;6.45;1.70;;;34.50;57.50;;;;;;5033065;28;20060;-43
2022/08/23 08:19:18;;;;;;;2.53;1.52;;;34.60;57.50;;;;;;5032892;28;20552;-45
2022/08/23 08:21:45;;;;;;;4.78;1.50;;;34.90;56.90;;;;;;5033362;28;20049;-43
2022/08/23 08:24:13;;;;;;;4.00;1.60;;;35.00;56.60;;;;;;5032798;28;20024;-43
2022/08/23 08:26:40;;;;;;;4.07;1.58;;;35.40;57.00;;;;;;5033089;28;20025;-45
2022/08/23 08:29:06;;;;;;;2.67;1.50;;;35.50;56.10;;;;;;5031640;28;20029;-43
2022/08/23 08:31:33;;;;;;;2.33;1.45;;;36.00;55.70;;;;;;5031265;28;20085;-44
2022/08/23 08:33:58;;;;;;;3.33;1.45;;;36.40;54.50;;;;;;5032153;28;20086;-48
2022/08/23 08:36:45;;;;;;;3.15;1.60;;;36.20;53.90;;;;;;5032970;28;20029;-47
2022/08/23 08:39:14;;;;;;;2.03;1.25;;;36.70;54.00;;;;;;5032493;28;20485;-46
2022/08/23 08:41:49;;;;;;;4.57;1.58;;;36.70;53.10;;;;;;5031450;28;20409;-47
2022/08/23 08:44:21;;;;;;;3.25;1.70;;;36.70;53.40;;;;;;5032037;28;20400;-44
2022/08/23 08:46:50;;;;;;;2.88;1.42;;;36.60;53.00;;;;;;5024399;28;20048;-45
2022/08/23 08:49:29;;;;;;;2.45;1.38;;;36.30;54.10;;;;;;5032145;28;20025;-45
2022/08/23 08:52:13;;;;;;;4.15;1.60;;;35.80;53.70;;;;;;5022925;28;20513;-49
2022/08/23 08:54:41;;;;;;;4.97;1.37;;;35.00;54.50;;;;;;5011199;28;20064;-45
2022/08/23 08:57:08;;;;;;;3.05;1.67;;;34.50;55.80;;;;;;5019972;28;20032;-44
2022/08/23 09:00:04;;;;;;;3.55;1.65;;;34.30;55.20;;;;;;5031112;28;20481;-47
2022/08/23 09:02:33;;;;;;;2.83;1.70;;;34.00;55.70;;;;;;5030643;28;20055;-46
2022/08/23 09:05:26;;;;;;;4.15;1.98;;;33.70;56.00;;;;;;5030726;28;20033;-47
2022/08/23 09:08:09;;;;;;;12.20;1.98;;;33.30;55.70;;;;;;5031141;28;20033;-45
2022/08/23 09:11:12;;;;;;;3.17;1.65;;;32.70;57.30;;;;;;5030745;28;20021;-42
2022/08/23 09:14:08;;;;;;;3.67;1.80;;;32.40;57.70;;;;;;5011495;28;20041;-47
2022/08/23 09:16:45;;;;;;;4.10;1.80;;;32.40;58.00;;;;;;5016627;28;20026;-47
2022/08/23 09:19:11;;;;;;;4.07;2.30;;;32.40;58.40;;;;;;5031161;28;20183;-42
2022/08/23 09:21:48;;;;;;;6.60;1.80;;;32.40;59.00;;;;;;5030353;28;20076;-43
2022/08/23 09:24:14;;;;;;;2.97;1.90;;;32.50;57.90;;;;;;5030262;28;20256;-44
2022/08/23 09:26:41;;;;;;;4.78;2.03;;;32.60;58.40;;;;;;5030476;28;20061;-50
2022/08/23 09:29:20;;;;;;;3.65;2.00;;;32.40;58.70;;;;;;5031990;28;20033;-42
2022/08/23 09:31:57;;;;;;;3.92;2.15;;;32.20;58.80;;;;;;5030255;28;20029;-46
2022/08/23 09:34:31;;;;;;;3.50;1.80;;;32.00;59.50;;;;;;5031972;28;20033;-47
2022/08/23 09:37:15;;;;;;;5.85;2.15;;;31.90;59.90;;;;;;5032350;28;20100;-45
2022/08/23 09:39:43;;;;;;;4.60;2.22;;;31.90;60.00;;;;;;5018573;28;20037;-41
2022/08/23 09:42:26;;;;;;;2.55;1.90;;;32.00;59.90;;;;;;5031230;28;20026;-48
2022/08/23 09:44:52;;;;;;;9.95;2.38;;;32.40;60.80;;;;;;5031737;28;20507;-43
2022/08/23 09:47:18;;;;;;;13.10;9.75;;;32.40;59.50;;;;;;5031842;28;20077;-47
2022/08/23 09:49:47;;;;;;;6.55;4.50;;;32.30;59.10;;;;;;5026666;28;20028;-46
2022/08/23 09:52:19;;;;;;;30.27;24.45;;;32.20;60.10;;;;;;5012224;28;20026;-42
2022/08/23 09:54:54;;;;;;;6.05;2.90;;;32.20;60.50;;;;;;5012528;28;20029;-45
2022/08/23 09:57:27;;;;;;;8.52;2.35;;;32.30;60.00;;;;;;5011504;28;20032;-49
2022/08/23 09:59:55;;;;;;;10.45;2.10;;;32.40;59.80;;;;;;5012273;28;20109;-43
2022/08/23 10:02:20;;;;;;;6.28;2.70;;;32.20;59.50;;;;;;5011706;28;20504;-43
2022/08/23 10:05:06;;;;;;;5.47;2.40;;;31.70;60.10;;;;;;5029609;28;20026;-46
2022/08/23 10:07:51;;;;;;;3.05;2.17;;;31.40;60.30;;;;;;5031508;28;20393;-46
2022/08/23 10:10:23;;;;;;;2.63;2.10;;;31.30;60.60;;;;;;5021889;28;20030;-47
2022/08/23 10:12:50;;;;;;;3.00;2.28;;;31.10;61.00;;;;;;5009373;28;20500;-45
2022/08/23 10:15:15;;;;;;;5.28;2.33;;;31.10;60.90;;;;;;5010317;28;20049;-44
2022/08/23 10:17:55;;;;;;;5.72;1.80;;;30.90;61.30;;;;;;5019173;28;20030;-48
2022/08/23 10:20:40;;;;;;;3.08;2.13;;;30.80;61.50;;;;;;5030720;28;20091;-43
2022/08/23 10:23:34;;;;;;;4.20;2.30;;;30.80;61.40;;;;;;5034102;28;20037;-44
2022/08/23 10:26:00;;;;;;;5.53;4.07;;;30.80;62.10;;;;;;5018930;28;20389;-47
2022/08/23 10:31:52;;;;;;;2.75;2.00;;;30.70;62.90;;;;;;5035066;28;20484;-48
2022/08/23 10:34:43;;;;;;;3.97;1.90;;;30.60;62.20;;;;;;5009122;28;20074;-48
2022/08/23 10:37:29;;;;;;;5.13;2.20;;;30.60;63.00;;;;;;5015175;28;20026;-43
2022/08/23 10:40:11;;;;;;;3.60;1.92;;;30.50;62.20;;;;;;5014732;28;20061;-43
2022/08/23 10:42:53;;;;;;;5.53;2.47;;;30.40;62.40;;;;;;5030316;28;20026;-45
2022/08/23 10:45:31;;;;;;;6.72;2.30;;;30.20;62.50;;;;;;5025087;28;20022;-43
2022/08/23 10:48:35;;;;;;;5.63;2.60;;;30.00;63.20;;;;;;5034511;28;20028;-47
2022/08/23 10:51:08;;;;;;;2.97;2.00;;;30.00;63.50;;;;;;5017336;28;20037;-46
2022/08/23 10:53:47;;;;;;;4.55;2.08;;;30.00;63.80;;;;;;5033068;28;20444;-45
2022/08/23 10:56:19;;;;;;;2.38;2.17;;;30.00;64.70;;;;;;5033594;28;20063;-45
2022/08/23 10:58:46;;;;;;;4.25;2.45;;;30.10;63.40;;;;;;5033710;28;20033;-45
2022/08/23 11:01:16;;;;;;;2.08;1.80;;;30.20;62.60;;;;;;5034129;28;20370;-43
2022/08/23 11:04:03;;;;;;;4.43;2.22;;;30.10;62.70;;;;;;5034263;28;20026;-43
2022/08/23 11:06:34;;;;;;;2.95;2.50;;;30.00;63.10;;;;;;5032616;28;20036;-45
2022/08/23 11:09:05;;;;;;;3.70;2.85;;;29.90;63.40;;;;;;5032524;28;20061;-46
2022/08/23 11:11:58;;;;;;;6.93;5.70;;;29.70;63.80;;;;;;5034455;28;20493;-47
2022/08/23 11:14:39;;;;;;;45.13;32.42;;;29.70;63.70;;;;;;5034160;28;20075;-48
2022/08/23 11:17:10;;;;;;;5.03;3.13;;;29.70;64.40;;;;;;5032950;28;20086;-46
2022/08/23 11:19:51;;;;;;;4.70;2.72;;;29.70;63.80;;;;;;5034131;28;20029;-49
2022/08/23 11:22:26;;;;;;;9.82;3.83;;;29.60;63.50;;;;;;5033102;28;20401;-45
2022/08/23 11:25:00;;;;;;;6.80;2.40;;;29.70;64.10;;;;;;5034071;28;20022;-47
2022/08/23 11:27:40;;;;;;;9.07;2.78;;;29.70;63.50;;;;;;5033921;28;20096;-42
2022/08/23 11:30:36;;;;;;;3.50;2.00;;;29.70;63.00;;;;;;5033648;28;20021;-44
2022/08/23 11:33:19;;;;;;;4.53;2.05;;;29.60;63.60;;;;;;5032803;28;20034;-43
2022/08/23 11:35:51;;;;;;;5.50;2.70;;;29.60;62.80;;;;;;5033875;28;20536;-43
2022/08/23 11:38:46;;;;;;;7.90;2.45;;;29.50;62.80;;;;;;5033597;28;20041;-46
2022/08/23 11:41:17;;;;;;;8.03;2.97;;;29.40;63.50;;;;;;5033565;28;20028;-44
2022/08/23 11:43:53;;;;;;;7.75;2.13;;;29.40;64.00;;;;;;5032814;28;20227;-47
2022/08/23 11:46:29;;;;;;;3.25;1.80;;;29.40;63.70;;;;;;5033319;28;20108;-44
2022/08/23 11:49:01;;;;;;;5.57;2.20;;;29.40;63.40;;;;;;5033260;28;20032;-47
2022/08/23 11:51:43;;;;;;;5.78;2.60;;;29.40;63.60;;;;;;5033203;28;20037;-46
2022/08/23 11:54:26;;;;;;;4.20;2.03;;;29.40;64.50;;;;;;5032673;28;20032;-46
2022/08/23 11:57:01;;;;;;;13.85;11.02;;;29.40;64.10;;;;;;5033124;28;20033;-45
2022/08/23 11:59:59;;;;;;;5.22;2.55;;;29.50;63.30;;;;;;5033008;28;20116;-45
2022/08/23 12:02:30;;;;;;;7.85;2.22;;;29.50;64.40;;;;;;5032620;28;20024;-46
2022/08/23 12:04:59;;;;;;;2.50;2.30;;;29.50;63.90;;;;;;5032874;28;20057;-48
2022/08/23 12:07:46;;;;;;;5.32;2.83;;;29.60;63.60;;;;;;5032933;28;20018;-45
2022/08/23 12:10:15;;;;;;;2.40;2.20;;;29.60;64.10;;;;;;5032774;28;20049;-40
2022/08/23 12:12:41;;;;;;;7.78;2.47;;;29.60;63.20;;;;;;5032420;28;20613;-42
2022/08/23 12:15:10;;;;;;;5.15;2.78;;;29.70;62.80;;;;;;5032583;28;20030;-48
2022/08/23 12:17:38;;;;;;;6.78;2.33;;;29.60;62.50;;;;;;5032623;28;20548;-49
2022/08/23 12:20:05;;;;;;;2.78;2.22;;;29.60;61.80;;;;;;5033585;28;20029;-45
2022/08/23 12:22:53;;;;;;;5.05;2.15;;;29.60;61.80;;;;;;5033491;28;20022;-42
2022/08/23 12:25:22;;;;;;;2.50;2.30;;;29.50;62.20;;;;;;5032992;28;20448;-51
2022/08/23 12:27:56;;;;;;;2.50;1.85;;;29.50;63.00;;;;;;5032831;28;20045;-45
2022/08/23 12:30:29;;;;;;;3.88;2.45;;;29.50;62.90;;;;;;5032522;28;20339;-47
2022/08/23 12:33:02;;;;;;;3.80;2.28;;;29.70;62.40;;;;;;5031886;28;20033;-49
2022/08/23 12:35:42;;;;;;;2.38;2.17;;;29.70;61.30;;;;;;5032258;28;20021;-48
2022/08/23 12:38:17;;;;;;;7.47;2.17;;;29.70;61.90;;;;;;5032354;28;20393;-49
2022/08/23 12:40:49;;;;;;;2.42;2.20;;;29.80;61.50;;;;;;5032257;28;20029;-47
2022/08/23 12:43:17;;;;;;;20.80;18.27;;;29.80;60.80;;;;;;5031989;28;20041;-45
2022/08/23 12:45:55;;;;;;;9.50;5.40;;;29.70;59.80;;;;;;5031573;28;20025;-48
2022/08/23 12:48:25;;;;;;;12.20;9.20;;;29.80;60.00;;;;;;5032162;28;20447;-47
2022/08/23 12:51:10;;;;;;;5.53;2.60;;;29.80;60.50;;;;;;5031827;28;20025;-49
2022/08/23 12:53:39;;;;;;;4.90;2.42;;;29.90;60.50;;;;;;5031951;28;20018;-46
2022/08/23 12:56:09;;;;;;;4.03;2.42;;;29.90;60.90;;;;;;5032249;28;20461;-48
2022/08/23 12:58:38;;;;;;;7.10;2.60;;;29.90;61.00;;;;;;5031963;28;20393;-50
2022/08/23 13:01:19;;;;;;;2.40;2.20;;;29.90;61.70;;;;;;5032026;28;20025;-46
2022/08/23 13:03:50;;;;;;;4.13;2.42;;;30.00;61.20;;;;;;5031806;28;20022;-46
2022/08/23 13:06:22;;;;;;;3.30;2.40;;;30.00;61.10;;;;;;5032088;28;20013;-48
2022/08/23 13:09:07;;;;;;;7.82;2.80;;;30.00;60.90;;;;;;5032173;28;20037;-48
2022/08/23 13:11:35;;;;;;;2.72;2.22;;;29.90;60.30;;;;;;5032595;28;20029;-49
2022/08/23 13:14:34;;;;;;;4.45;2.67;;;30.00;60.30;;;;;;5031349;28;20033;-46
2022/08/23 13:17:18;;;;;;;4.25;2.33;;;29.80;59.90;;;;;;5031902;28;20029;-48